KTIW Airport Information

Runway Information
Runway 17 Length 5002 ft width 150 ft
Elevation 289 ft Threshold ft Heading 187
Runway 35 Length 5002 ft Width 150 ft
Elevation 292 ft Threshold ft Heading 7
Airport Frequencies
Type A/D Name SEATTLE AP Frequency 120.1 MHZ
Type ATIS Name ATIS Frequency 124.05 MHZ
Type CTAF Name CTAF Frequency 118.5 MHZ
Type GND Name GND Frequency 121.8 MHZ
Type TWR Name TWR Frequency 118.5 MHZ
Type UNIC Name UNICOM Frequency 122.95 MHZ
Airport Navaids
Airport Weather Information & NOTAM
ADDS - METARS form results

(0916 UTC 04 February 2023)
Data provider http://aviationweather.gov/metar/data/
 
METAR text: KTIW 040853Z AUTO 20012G19KT 10SM SCT042 OVC060 08/06 A3005 RMK AO2 RAE0758 SLP178 P0000 60001 T00830056 53002 $
Conditions at: KTIW (TACOMA , WA, US) observed 0853 UTC 04 February 2023
Temperature: 8.3°C (47°F)
Dewpoint: 5.6°C (42°F) [RH = 83%]
Pressure (altimeter): 30.05 inches Hg (1017.7 mb)
[Sea-level pressure: 1017.8 mb]
Winds: from the SSW (200 degrees) at 14 MPH (12 knots; 6.2 m/s)
gusting to 22 MPH (19 knots; 9.8 m/s)
Visibility: 10 or more miles (16+ km)
Ceiling: 6000 feet AGL
Clouds: scattered clouds at 4200 feet AGL
overcast cloud deck at 6000 feet AGL
Weather:
SOME DATA ABOVE MAY BE INACCURATE!!!
"$" is an indication the sensor requires maintenance